Address 0x69e3419cb86563cb847e04b79ffa1b422275d574

 
 
Txn Hash Method
Block
From
To
Value [Txn Fee]
0xc0b6d4e64e4e6ec2ea848f5a8c4ce5bbbc21364f2a64af58f4b6a5a41a5eb7d40x672d8f42118762872021-10-18 9:36:4845 mins ago0x69e3419cb86563cb847e04b79ffa1b422275d574OUT 0x000859bf6357a8b09d3ed3797284831492c9d6470 BNB0.00047747
0xc084b9a2244de9d3e5e6fa541ff85a04595b126e2ce5e275a90af5ed9bbb6bbd0x672d8f42118762842021-10-18 9:36:3945 mins ago0x69e3419cb86563cb847e04b79ffa1b422275d574OUT 0x000859bf6357a8b09d3ed3797284831492c9d6470 BNB0.00047862
0x2b35fe30b6843ae17a5afde8a13e98a3688729ac8b77c7f4600869fddfbd932d0x672d8f42118762812021-10-18 9:36:3045 mins ago0x69e3419cb86563cb847e04b79ffa1b422275d574OUT 0x000859bf6357a8b09d3ed3797284831492c9d6470 BNB0.000479285
0x5f09fb2ed5db53eda2c2e0440db221a3f93cda3038dbb6d28234b2c97c3f10440x672d8f42118761472021-10-18 9:29:4752 mins ago0x69e3419cb86563cb847e04b79ffa1b422275d574OUT 0x000859bf6357a8b09d3ed3797284831492c9d6470 BNB0.000479285
0xfad414a47a17756352ea1bdeea5b95a6919997485f7820149d4418352517abb40x672d8f42118755932021-10-18 9:02:051 hr 20 mins ago0x69e3419cb86563cb847e04b79ffa1b422275d574OUT 0x000859bf6357a8b09d3ed3797284831492c9d6470 BNB0.00033323
0x8bbeb28b102be1cce2bef438fe6aef489a7859882cbbb1573b60c2941e3b70380x672d8f42118755452021-10-18 8:59:411 hr 22 mins ago0x69e3419cb86563cb847e04b79ffa1b422275d574OUT 0x000859bf6357a8b09d3ed3797284831492c9d6470 BNB0.000478015
0x84bdeab02544ae8bd590db78f06d89e72dd35b4bfca36da4ec697531fd726b5a0x672d8f42118749412021-10-18 8:29:291 hr 52 mins ago0x69e3419cb86563cb847e04b79ffa1b422275d574OUT 0x000859bf6357a8b09d3ed3797284831492c9d6470 BNB0.00047868
0x7f1f7713742d8f570b3377a4fb6237194bdc4b1ebcc59dc61dbd81276c51d1670x672d8f42118732292021-10-18 7:03:503 hrs 18 mins ago0x69e3419cb86563cb847e04b79ffa1b422275d574OUT 0x000859bf6357a8b09d3ed3797284831492c9d6470 BNB0.00057886
0x421c5935be278bbc14e25b4817e70d4e9634ec45e4c0ff9528e2f9028fd3d9b5Swap Exact Token...118731752021-10-18 7:01:083 hrs 21 mins ago0x69e3419cb86563cb847e04b79ffa1b422275d574OUT PancakeSwap: Router v20 BNB0.000954255
0x84df2c6d9b91a07958f8981d144143cb505dd5883f4ddba73f6e6c347e1befbcClaim Token Rewa...118731722021-10-18 7:00:593 hrs 21 mins ago0x69e3419cb86563cb847e04b79ffa1b422275d574OUT 0x000859bf6357a8b09d3ed3797284831492c9d6470 BNB0.000297265
0x909aaeae8d84e451f9a5f06cebf9c30f15cbf49f860e8573f03d46ee119deaf80x672d8f42118731392021-10-18 6:59:203 hrs 23 mins ago0x69e3419cb86563cb847e04b79ffa1b422275d574OUT 0x000859bf6357a8b09d3ed3797284831492c9d6470 BNB0.00033101
0xb50e2882b07da50fda4ccbb53c5c02b466fe8cab0336cd2f0b3c97ba78c5e91f0x672d8f42118719742021-10-18 6:01:054 hrs 21 mins ago0x69e3419cb86563cb847e04b79ffa1b422275d574OUT 0x000859bf6357a8b09d3ed3797284831492c9d6470 BNB0.000478075
0x501369d13ed1657fbdf01220da8848e8e54b2c94b9590e56a57343bd589d56640x672d8f42118714722021-10-18 5:35:584 hrs 46 mins ago0x69e3419cb86563cb847e04b79ffa1b422275d574OUT 0x000859bf6357a8b09d3ed3797284831492c9d6470 BNB0.00047862
0x9b87618ba6831e045f62d77ae98ebc6ca83d8783e59578b4880a47045e3bc5ed0x672d8f42118714692021-10-18 5:35:494 hrs 46 mins ago0x69e3419cb86563cb847e04b79ffa1b422275d574OUT 0x000859bf6357a8b09d3ed3797284831492c9d6470 BNB0.000506465
0x48ed7f366f96bf0ca39e22339dc3a0a19c3ae82b427f3d610eec2b0500de18fb0x672d8f42118713712021-10-18 5:30:554 hrs 51 mins ago0x69e3419cb86563cb847e04b79ffa1b422275d574OUT 0x000859bf6357a8b09d3ed3797284831492c9d6470 BNB0.000478075
0xe01a8514349d4eab8e259a8ffd6bdece177f1917a05984e50d5631b79ad13f4d0x672d8f42118707822021-10-18 5:01:285 hrs 21 mins ago0x69e3419cb86563cb847e04b79ffa1b422275d574OUT 0x000859bf6357a8b09d3ed3797284831492c9d6470 BNB0.00047969
0x9e2db717f5058c51c89b6c08b6c409b0680d494b0686fdf33bb438533e3c025c0x672d8f42118695622021-10-18 4:00:276 hrs 22 mins ago0x69e3419cb86563cb847e04b79ffa1b422275d574OUT 0x000859bf6357a8b09d3ed3797284831492c9d6470 BNB0.00047741
0x54e8a6c0655c381e3d59631e5bf6167a944a6ebb6f8cceb8ec320d7168e0dc5d0x672d8f42118689652021-10-18 3:30:366 hrs 51 mins ago0x69e3419cb86563cb847e04b79ffa1b422275d574OUT 0x000859bf6357a8b09d3ed3797284831492c9d6470 BNB0.000506465
0xd0d14bdbf2afaa86e959a10d5235959d309e547328b940eec00a1771e4cde00f0x672d8f42118683772021-10-18 3:01:127 hrs 21 mins ago0x69e3419cb86563cb847e04b79ffa1b422275d574OUT 0x000859bf6357a8b09d3ed3797284831492c9d6470 BNB0.00050923
0xa168a02e46576a30da130f44ab512f29d6c3d039b13f346390916f218b33ff650x672d8f42118683522021-10-18 2:59:577 hrs 22 mins ago0x69e3419cb86563cb847e04b79ffa1b422275d574OUT 0x000859bf6357a8b09d3ed3797284831492c9d6470 BNB0.000478075
0xc9b506d20ec17db3a79b7e9136473f5f8c9cbc86d6dad2b442a3f72b3b9e4ef70x672d8f42118671742021-10-18 2:01:018 hrs 21 mins ago0x69e3419cb86563cb847e04b79ffa1b422275d574OUT 0x000859bf6357a8b09d3ed3797284831492c9d6470 BNB0.00047969
0x219433636824df48f81dc6c2c63ccb4ab2c8229a4c99c9b35db52fb0ac8b9ce50x672d8f42118671372021-10-18 1:59:108 hrs 23 mins ago0x69e3419cb86563cb847e04b79ffa1b422275d574OUT 0x000859bf6357a8b09d3ed3797284831492c9d6470 BNB0.00047868
0x73329bbf0af404aa0d0223e226dc0937a361fc0bc3250220321eed1b722c03810x672d8f42118665602021-10-18 1:30:198 hrs 52 mins ago0x69e3419cb86563cb847e04b79ffa1b422275d574OUT 0x000859bf6357a8b09d3ed3797284831492c9d6470 BNB0.000479285
0xf0dfac69107fa57c12564cf196105887934631dfc934733a1d9896e5384b18880x672d8f42118654122021-10-18 0:32:039 hrs 50 mins ago0x69e3419cb86563cb847e04b79ffa1b422275d574OUT 0x000859bf6357a8b09d3ed3797284831492c9d6470 BNB0.000478075
0x7543943797d71050c3cd45434b93037a2d483a3a4d5a7b8b42017639a878726b0x672d8f42118642072021-10-17 23:31:2510 hrs 51 mins ago0x69e3419cb86563cb847e04b79ffa1b422275d574OUT 0x000859bf6357a8b09d3ed3797284831492c9d6470 BNB0.000478075
[ Download CSV Export 
Parent Txn Hash Block From To Value
Loading

Contract Name:
0 BNB

Compiler Version
0

Optimization Enabled:
0 BNB

Other Settings:
-NA-
Block Transaction Gas Used Reward
Age Block Fee Address BC Fee Address Voting Power Jailed Incoming
Block Uncle Number Difficulty Gas Used Reward
Loading
Loading
Make sure to use the "Vote Down" button for any spammy posts, and the "Vote Up" for interesting conversations.